sensor_id;sensor_type;location;lat;lon;timestamp;pressure;altitude;pressure_sealevel;temperature;humidity
14689;BME280;7432;48.728;9.154;2024-02-23T00:00:43;143208.00;;;5.55;97.54
14689;BME280;7432;48.728;9.154;2024-02-23T00:03:09;143223.69;;;5.62;97.03
14689;BME280;7432;48.728;9.154;2024-02-23T00:05:35;143228.50;;;5.64;96.84
14689;BME280;7432;48.728;9.154;2024-02-23T00:08:02;143216.44;;;5.59;97.09
14689;BME280;7432;48.728;9.154;2024-02-23T00:10:30;143191.16;;;5.48;96.48
14689;BME280;7432;48.728;9.154;2024-02-23T00:12:56;143201.97;;;5.53;98.18
14689;BME280;7432;48.728;9.154;2024-02-23T00:15:23;143181.47;;;5.44;97.60
14689;BME280;7432;48.728;9.154;2024-02-23T00:17:50;143191.16;;;5.48;97.53
14689;BME280;7432;48.728;9.154;2024-02-23T00:20:16;143192.38;;;5.49;97.51
14689;BME280;7432;48.728;9.154;2024-02-23T00:22:43;143198.38;;;5.51;96.98
14689;BME280;7432;48.728;9.154;2024-02-23T00:25:09;143170.66;;;5.39;97.87
14689;BME280;7432;48.728;9.154;2024-02-23T00:27:37;143201.97;;;5.53;96.80
14689;BME280;7432;48.728;9.154;2024-02-23T00:30:05;143191.16;;;5.48;97.12
14689;BME280;7432;48.728;9.154;2024-02-23T00:32:32;143168.22;;;5.38;98.90
14689;BME280;7432;48.728;9.154;2024-02-23T00:34:58;143165.84;;;5.37;98.19
14689;BME280;7432;48.728;9.154;2024-02-23T00:37:25;143159.81;;;5.35;99.28
14689;BME280;7432;48.728;9.154;2024-02-23T00:39:51;143151.38;;;5.31;99.82
14689;BME280;7432;48.728;9.154;2024-02-23T00:42:17;143175.47;;;5.42;98.44
14689;BME280;7432;48.728;9.154;2024-02-23T00:44:47;143173.09;;;5.41;98.29
14689;BME280;7432;48.728;9.154;2024-02-23T00:47:13;143161.00;;;5.35;98.74
14689;BME280;7432;48.728;9.154;2024-02-23T00:49:38;143162.22;;;5.36;98.24
14689;BME280;7432;48.728;9.154;2024-02-23T00:52:05;143182.69;;;5.45;96.81
14689;BME280;7432;48.728;9.154;2024-02-23T00:54:31;143171.88;;;5.40;96.94
14689;BME280;7432;48.728;9.154;2024-02-23T00:56:58;143180.31;;;5.44;97.37
14689;BME280;7432;48.728;9.154;2024-02-23T00:59:24;143146.56;;;5.29;97.40
14689;BME280;7432;48.728;9.154;2024-02-23T01:01:52;143151.38;;;5.31;97.86
14689;BME280;7432;48.728;9.154;2024-02-23T01:04:18;143135.69;;;5.25;98.50
14689;BME280;7432;48.728;9.154;2024-02-23T01:06:44;143126.09;;;5.21;98.91
14689;BME280;7432;48.728;9.154;2024-02-23T01:09:11;143150.16;;;5.31;98.07
14689;BME280;7432;48.728;9.154;2024-02-23T01:11:37;143124.88;;;5.20;98.61
14689;BME280;7432;48.728;9.154;2024-02-23T01:14:03;143128.47;;;5.22;98.97
14689;BME280;7432;48.728;9.154;2024-02-23T01:16:31;143103.19;;;5.11;99.41
14689;BME280;7432;48.728;9.154;2024-02-23T01:18:59;143108.03;;;5.13;99.34
14689;BME280;7432;48.728;9.154;2024-02-23T01:21:25;143132.09;;;5.23;99.14
14689;BME280;7432;48.728;9.154;2024-02-23T01:23:52;143116.44;;;5.17;99.17
14689;BME280;7432;48.728;9.154;2024-02-23T01:26:18;143123.66;;;5.20;99.09
14689;BME280;7432;48.728;9.154;2024-02-23T01:28:44;143092.34;;;5.07;99.99
14689;BME280;7432;48.728;9.154;2024-02-23T01:31:11;143100.78;;;5.10;98.72
14689;BME280;7432;48.728;9.154;2024-02-23T01:33:38;143089.94;;;5.06;99.29
14689;BME280;7432;48.728;9.154;2024-02-23T01:36:06;143073.06;;;4.99;98.77
14689;BME280;7432;48.728;9.154;2024-02-23T01:38:33;143062.25;;;4.94;99.24
14689;BME280;7432;48.728;9.154;2024-02-23T01:41:00;143036.94;;;4.84;99.35
14689;BME280;7432;48.728;9.154;2024-02-23T01:43:26;143033.31;;;4.82;99.89
14689;BME280;7432;48.728;9.154;2024-02-23T01:45:53;143050.16;;;4.89;99.60
14689;BME280;7432;48.728;9.154;2024-02-23T01:48:20;143056.25;;;4.92;100.00
14689;BME280;7432;48.728;9.154;2024-02-23T01:50:47;143073.06;;;4.99;99.82
14689;BME280;7432;48.728;9.154;2024-02-23T01:53:15;143077.88;;;5.01;98.59
14689;BME280;7432;48.728;9.154;2024-02-23T01:55:45;143083.91;;;5.03;98.79
14689;BME280;7432;48.728;9.154;2024-02-23T01:58:12;143091.13;;;5.06;98.58
14689;BME280;7432;48.728;9.154;2024-02-23T02:00:38;143091.13;;;5.06;98.91
14689;BME280;7432;48.728;9.154;2024-02-23T02:03:04;143115.25;;;5.16;99.37
14689;BME280;7432;48.728;9.154;2024-02-23T02:05:31;143099.59;;;5.10;97.56
14689;BME280;7432;48.728;9.154;2024-02-23T02:07:57;143112.84;;;5.15;97.96
14689;BME280;7432;48.728;9.154;2024-02-23T02:10:26;143103.19;;;5.11;97.81
14689;BME280;7432;48.728;9.154;2024-02-23T02:12:52;143069.50;;;4.97;97.59
14689;BME280;7432;48.728;9.154;2024-02-23T02:15:19;143074.28;;;4.99;97.88
14689;BME280;7432;48.728;9.154;2024-02-23T02:17:47;143065.84;;;4.96;98.82
14689;BME280;7432;48.728;9.154;2024-02-23T02:20:13;143052.59;;;4.90;98.23
14689;BME280;7432;48.728;9.154;2024-02-23T02:22:40;143055.03;;;4.91;98.82
14689;BME280;7432;48.728;9.154;2024-02-23T02:25:07;143028.53;;;4.80;98.32
14689;BME280;7432;48.728;9.154;2024-02-23T02:27:35;143041.78;;;4.86;99.08
14689;BME280;7432;48.728;9.154;2024-02-23T02:30:01;143036.94;;;4.84;99.23
14689;BME280;7432;48.728;9.154;2024-02-23T02:32:28;143049.00;;;4.89;99.81
14689;BME280;7432;48.728;9.154;2024-02-23T02:34:54;143032.13;;;4.82;100.00
14689;BME280;7432;48.728;9.154;2024-02-23T02:37:20;143033.31;;;4.82;100.00
14689;BME280;7432;48.728;9.154;2024-02-23T02:39:47;143015.28;;;4.74;100.00
14689;BME280;7432;48.728;9.154;2024-02-23T02:42:13;143033.31;;;4.82;100.00
14689;BME280;7432;48.728;9.154;2024-02-23T02:44:41;143043.00;;;4.86;100.00
14689;BME280;7432;48.728;9.154;2024-02-23T02:47:07;143026.09;;;4.79;100.00
14689;BME280;7432;48.728;9.154;2024-02-23T02:49:34;143047.78;;;4.88;99.98
14689;BME280;7432;48.728;9.154;2024-02-23T02:52:00;143034.53;;;4.83;98.50
14689;BME280;7432;48.728;9.154;2024-02-23T02:54:27;143053.81;;;4.91;96.74
14689;BME280;7432;48.728;9.154;2024-02-23T02:56:52;143053.81;;;4.91;96.01
14689;BME280;7432;48.728;9.154;2024-02-23T02:59:19;143057.41;;;4.92;94.78
14689;BME280;7432;48.728;9.154;2024-02-23T03:01:47;143051.38;;;4.90;93.63
14689;BME280;7432;48.728;9.154;2024-02-23T03:04:13;143043.00;;;4.86;91.95
14689;BME280;7432;48.728;9.154;2024-02-23T03:06:40;143041.78;;;4.86;93.08
14689;BME280;7432;48.728;9.154;2024-02-23T03:09:06;143080.31;;;5.02;88.83
14689;BME280;7432;48.728;9.154;2024-02-23T03:11:33;143063.41;;;4.95;89.25
14689;BME280;7432;48.728;9.154;2024-02-23T03:13:59;143065.84;;;4.96;86.92
14689;BME280;7432;48.728;9.154;2024-02-23T03:16:26;143059.81;;;4.93;86.92
14689;BME280;7432;48.728;9.154;2024-02-23T03:18:55;143034.53;;;4.83;87.82
14689;BME280;7432;48.728;9.154;2024-02-23T03:21:21;143045.38;;;4.87;86.64
14689;BME280;7432;48.728;9.154;2024-02-23T03:23:48;143041.78;;;4.86;85.56
14689;BME280;7432;48.728;9.154;2024-02-23T03:26:14;143040.56;;;4.85;85.38
14689;BME280;7432;48.728;9.154;2024-02-23T03:28:42;143030.91;;;4.81;86.66
14689;BME280;7432;48.728;9.154;2024-02-23T03:31:08;143034.53;;;4.83;86.48
14689;BME280;7432;48.728;9.154;2024-02-23T03:33:34;143027.31;;;4.79;86.67
14689;BME280;7432;48.728;9.154;2024-02-23T03:36:03;143036.94;;;4.84;85.07
14689;BME280;7432;48.728;9.154;2024-02-23T03:38:29;143024.88;;;4.78;86.67
14689;BME280;7432;48.728;9.154;2024-02-23T03:40:56;143017.66;;;4.75;85.11
14689;BME280;7432;48.728;9.154;2024-02-23T03:43:22;143005.63;;;4.70;87.15
14689;BME280;7432;48.728;9.154;2024-02-23T03:45:48;143015.28;;;4.74;84.74
14689;BME280;7432;48.728;9.154;2024-02-23T03:48:15;143006.84;;;4.71;84.13
14689;BME280;7432;48.728;9.154;2024-02-23T03:50:41;143009.25;;;4.72;83.27
14689;BME280;7432;48.728;9.154;2024-02-23T03:53:09;143018.88;;;4.76;84.19
14689;BME280;7432;48.728;9.154;2024-02-23T03:55:35;143029.75;;;4.81;82.05
14689;BME280;7432;48.728;9.154;2024-02-23T03:58:01;143017.66;;;4.75;83.38
14689;BME280;7432;48.728;9.154;2024-02-23T04:00:28;143011.63;;;4.73;82.84
14689;BME280;7432;48.728;9.154;2024-02-23T04:02:54;143005.63;;;4.70;82.34
14689;BME280;7432;48.728;9.154;2024-02-23T04:05:20;143012.84;;;4.73;82.10
14689;BME280;7432;48.728;9.154;2024-02-23T04:07:47;143011.63;;;4.73;80.75
14689;BME280;7432;48.728;9.154;2024-02-23T04:10:15;142996.00;;;4.66;80.62
14689;BME280;7432;48.728;9.154;2024-02-23T04:12:41;142975.53;;;4.58;82.64
14689;BME280;7432;48.728;9.154;2024-02-23T04:15:08;142994.81;;;4.66;81.38
14689;BME280;7432;48.728;9.154;2024-02-23T04:17:34;142997.22;;;4.67;81.07
14689;BME280;7432;48.728;9.154;2024-02-23T04:20:05;142981.56;;;4.60;81.64
14689;BME280;7432;48.728;9.154;2024-02-23T04:22:32;142979.13;;;4.59;82.25
14689;BME280;7432;48.728;9.154;2024-02-23T04:24:58;142970.72;;;4.56;81.73
14689;BME280;7432;48.728;9.154;2024-02-23T04:27:26;142959.88;;;4.51;83.76
14689;BME280;7432;48.728;9.154;2024-02-23T04:29:52;142965.88;;;4.54;82.60
14689;BME280;7432;48.728;9.154;2024-02-23T04:32:19;142957.50;;;4.50;83.13
14689;BME280;7432;48.728;9.154;2024-02-23T04:34:45;142961.09;;;4.52;84.58
14689;BME280;7432;48.728;9.154;2024-02-23T04:37:11;142959.88;;;4.51;84.55
14689;BME280;7432;48.728;9.154;2024-02-23T04:39:38;142935.81;;;4.41;83.40
14689;BME280;7432;48.728;9.154;2024-02-23T04:42:07;142940.59;;;4.43;84.30
14689;BME280;7432;48.728;9.154;2024-02-23T04:44:35;142970.72;;;4.56;84.94
14689;BME280;7432;48.728;9.154;2024-02-23T04:47:02;142943.03;;;4.44;85.77
14689;BME280;7432;48.728;9.154;2024-02-23T04:49:29;142937.00;;;4.42;84.67
14689;BME280;7432;48.728;9.154;2024-02-23T04:51:55;142940.59;;;4.43;86.75
14689;BME280;7432;48.728;9.154;2024-02-23T04:54:21;142957.50;;;4.50;86.41
14689;BME280;7432;48.728;9.154;2024-02-23T04:56:47;142933.38;;;4.40;86.38
14689;BME280;7432;48.728;9.154;2024-02-23T04:59:15;142933.38;;;4.40;88.10
14689;BME280;7432;48.728;9.154;2024-02-23T05:01:43;142916.53;;;4.33;88.23
14689;BME280;7432;48.728;9.154;2024-02-23T05:04:09;142899.72;;;4.26;88.68
14689;BME280;7432;48.728;9.154;2024-02-23T05:06:35;142896.06;;;4.25;88.18
14689;BME280;7432;48.728;9.154;2024-02-23T05:09:02;142885.25;;;4.20;87.53
14689;BME280;7432;48.728;9.154;2024-02-23T05:11:29;142897.28;;;4.25;87.96
14689;BME280;7432;48.728;9.154;2024-02-23T05:13:55;142884.03;;;4.19;89.33
14689;BME280;7432;48.728;9.154;2024-02-23T05:16:21;142873.22;;;4.15;89.30
14689;BME280;7432;48.728;9.154;2024-02-23T05:18:49;142863.56;;;4.11;90.61
14689;BME280;7432;48.728;9.154;2024-02-23T05:21:15;142850.34;;;4.05;90.36
14689;BME280;7432;48.728;9.154;2024-02-23T05:23:42;142845.53;;;4.03;90.27
14689;BME280;7432;48.728;9.154;2024-02-23T05:26:08;142832.28;;;3.98;90.30
14689;BME280;7432;48.728;9.154;2024-02-23T05:28:35;142828.66;;;3.96;90.83
14689;BME280;7432;48.728;9.154;2024-02-23T05:31:03;142815.41;;;3.91;90.75
14689;BME280;7432;48.728;9.154;2024-02-23T05:33:30;142835.88;;;3.99;89.85
14689;BME280;7432;48.728;9.154;2024-02-23T05:35:57;142834.72;;;3.99;90.09
14689;BME280;7432;48.728;9.154;2024-02-23T05:38:24;142841.91;;;4.02;89.39
14689;BME280;7432;48.728;9.154;2024-02-23T05:40:50;142820.28;;;3.93;90.60
14689;BME280;7432;48.728;9.154;2024-02-23T05:43:16;142813.03;;;3.90;90.17
14689;BME280;7432;48.728;9.154;2024-02-23T05:45:43;142803.41;;;3.86;91.78
14689;BME280;7432;48.728;9.154;2024-02-23T05:48:10;142803.41;;;3.86;91.69
14689;BME280;7432;48.728;9.154;2024-02-23T05:50:37;142789.00;;;3.80;91.48
14689;BME280;7432;48.728;9.154;2024-02-23T05:53:04;142814.25;;;3.90;91.08
14689;BME280;7432;48.728;9.154;2024-02-23T05:55:31;142832.28;;;3.98;90.64
14689;BME280;7432;48.728;9.154;2024-02-23T05:57:57;142809.41;;;3.88;91.60
14689;BME280;7432;48.728;9.154;2024-02-23T06:00:23;142798.59;;;3.84;91.56
14689;BME280;7432;48.728;9.154;2024-02-23T06:02:50;142776.91;;;3.75;92.06
14689;BME280;7432;48.728;9.154;2024-02-23T06:05:16;142762.53;;;3.69;92.15
14689;BME280;7432;48.728;9.154;2024-02-23T06:07:43;142751.66;;;3.64;92.27
14689;BME280;7432;48.728;9.154;2024-02-23T06:10:10;142750.44;;;3.64;92.85
14689;BME280;7432;48.728;9.154;2024-02-23T06:12:37;142760.09;;;3.68;92.74
14689;BME280;7432;48.728;9.154;2024-02-23T06:15:04;142761.31;;;3.68;93.35
14689;BME280;7432;48.728;9.154;2024-02-23T06:17:31;142764.91;;;3.70;93.29
14689;BME280;7432;48.728;9.154;2024-02-23T06:19:57;142754.09;;;3.65;93.66
14689;BME280;7432;48.728;9.154;2024-02-23T06:22:24;142770.91;;;3.72;94.34
14689;BME280;7432;48.728;9.154;2024-02-23T06:24:50;142780.56;;;3.76;94.97
14689;BME280;7432;48.728;9.154;2024-02-23T06:27:18;142772.13;;;3.73;95.43
14689;BME280;7432;48.728;9.154;2024-02-23T06:29:44;142762.53;;;3.69;96.06
14689;BME280;7432;48.728;9.154;2024-02-23T06:32:11;142775.75;;;3.74;95.25
14689;BME280;7432;48.728;9.154;2024-02-23T06:34:37;142785.34;;;3.78;95.43
14689;BME280;7432;48.728;9.154;2024-02-23T06:37:03;142786.56;;;3.79;96.49
14689;BME280;7432;48.728;9.154;2024-02-23T06:39:30;142799.81;;;3.84;96.28
14689;BME280;7432;48.728;9.154;2024-02-23T06:41:57;142828.66;;;3.96;96.31
14689;BME280;7432;48.728;9.154;2024-02-23T06:44:27;142857.56;;;4.08;95.60
14689;BME280;7432;48.728;9.154;2024-02-23T06:46:53;142866.00;;;4.12;95.06
14689;BME280;7432;48.728;9.154;2024-02-23T06:49:19;142887.63;;;4.21;95.07
14689;BME280;7432;48.728;9.154;2024-02-23T06:51:46;142910.53;;;4.31;94.62
14689;BME280;7432;48.728;9.154;2024-02-23T06:54:12;142917.75;;;4.34;94.52
14689;BME280;7432;48.728;9.154;2024-02-23T06:56:38;142938.22;;;4.42;94.39
14689;BME280;7432;48.728;9.154;2024-02-23T06:59:05;142943.03;;;4.44;94.12
14689;BME280;7432;48.728;9.154;2024-02-23T07:01:33;142927.38;;;4.38;94.42
14689;BME280;7432;48.728;9.154;2024-02-23T07:04:00;142938.22;;;4.42;93.23
14689;BME280;7432;48.728;9.154;2024-02-23T07:06:27;142905.72;;;4.29;94.75
14689;BME280;7432;48.728;9.154;2024-02-23T07:08:56;142923.78;;;4.36;93.78
14689;BME280;7432;48.728;9.154;2024-02-23T07:11:22;142915.31;;;4.33;93.97
14689;BME280;7432;48.728;9.154;2024-02-23T07:13:49;142911.75;;;4.31;94.30
14689;BME280;7432;48.728;9.154;2024-02-23T07:16:16;142898.50;;;4.26;94.81
14689;BME280;7432;48.728;9.154;2024-02-23T07:18:43;142932.22;;;4.40;94.28
14689;BME280;7432;48.728;9.154;2024-02-23T07:21:10;142961.09;;;4.52;93.72
14689;BME280;7432;48.728;9.154;2024-02-23T07:23:36;142965.88;;;4.54;93.31
14689;BME280;7432;48.728;9.154;2024-02-23T07:26:03;142973.09;;;4.57;92.63
14689;BME280;7432;48.728;9.154;2024-02-23T07:28:29;142981.56;;;4.60;92.46
14689;BME280;7432;48.728;9.154;2024-02-23T07:30:55;142997.22;;;4.67;92.46
14689;BME280;7432;48.728;9.154;2024-02-23T07:33:22;143029.75;;;4.81;91.74
14689;BME280;7432;48.728;9.154;2024-02-23T07:35:49;143055.03;;;4.91;91.11
14689;BME280;7432;48.728;9.154;2024-02-23T07:38:16;143065.84;;;4.96;91.47
14689;BME280;7432;48.728;9.154;2024-02-23T07:40:43;143080.31;;;5.02;90.81
14689;BME280;7432;48.728;9.154;2024-02-23T07:43:10;143129.69;;;5.22;89.46
14689;BME280;7432;48.728;9.154;2024-02-23T07:45:36;143186.34;;;5.46;87.94
14689;BME280;7432;48.728;9.154;2024-02-23T07:48:03;143214.03;;;5.58;87.57
14689;BME280;7432;48.728;9.154;2024-02-23T07:50:30;143262.25;;;5.78;85.46
14689;BME280;7432;48.728;9.154;2024-02-23T07:52:58;143276.72;;;5.84;84.75
14689;BME280;7432;48.728;9.154;2024-02-23T07:55:24;143296.06;;;5.92;84.45
14689;BME280;7432;48.728;9.154;2024-02-23T07:57:50;143280.34;;;5.85;83.42
14689;BME280;7432;48.728;9.154;2024-02-23T08:00:18;143279.16;;;5.85;83.78
14689;BME280;7432;48.728;9.154;2024-02-23T08:02:45;143256.22;;;5.75;84.25
14689;BME280;7432;48.728;9.154;2024-02-23T08:05:11;143233.31;;;5.66;84.53
14689;BME280;7432;48.728;9.154;2024-02-23T08:07:37;143200.75;;;5.52;84.24
14689;BME280;7432;48.728;9.154;2024-02-23T08:10:06;143208.00;;;5.55;85.35
14689;BME280;7432;48.728;9.154;2024-02-23T08:12:32;143214.03;;;5.58;84.71
14689;BME280;7432;48.728;9.154;2024-02-23T08:14:59;143233.31;;;5.66;84.80
14689;BME280;7432;48.728;9.154;2024-02-23T08:17:25;143255.00;;;5.75;84.58
14689;BME280;7432;48.728;9.154;2024-02-23T08:19:51;143269.47;;;5.81;84.11
14689;BME280;7432;48.728;9.154;2024-02-23T08:22:18;143308.09;;;5.97;84.28
14689;BME280;7432;48.728;9.154;2024-02-23T08:24:44;143343.06;;;6.12;82.38
14689;BME280;7432;48.728;9.154;2024-02-23T08:27:12;143419.03;;;6.43;79.51
14689;BME280;7432;48.728;9.154;2024-02-23T08:29:38;143444.34;;;6.54;78.43
14689;BME280;7432;48.728;9.154;2024-02-23T08:32:05;143458.81;;;6.60;79.03
14689;BME280;7432;48.728;9.154;2024-02-23T08:34:31;143468.44;;;6.64;78.69
14689;BME280;7432;48.728;9.154;2024-02-23T08:36:59;143464.84;;;6.63;77.98
14689;BME280;7432;48.728;9.154;2024-02-23T08:39:25;143455.19;;;6.58;78.54
14689;BME280;7432;48.728;9.154;2024-02-23T08:41:51;143454.00;;;6.58;77.56
14689;BME280;7432;48.728;9.154;2024-02-23T08:44:19;143467.28;;;6.64;76.37
14689;BME280;7432;48.728;9.154;2024-02-23T08:46:46;143481.72;;;6.70;77.42
14689;BME280;7432;48.728;9.154;2024-02-23T08:49:13;143497.41;;;6.76;76.23
14689;BME280;7432;48.728;9.154;2024-02-23T08:51:39;143460.03;;;6.61;75.58
14689;BME280;7432;48.728;9.154;2024-02-23T08:54:06;143469.66;;;6.65;76.55
14689;BME280;7432;48.728;9.154;2024-02-23T08:56:36;143470.88;;;6.65;75.77
14689;BME280;7432;48.728;9.154;2024-02-23T08:59:03;143473.31;;;6.66;76.75
14689;BME280;7432;48.728;9.154;2024-02-23T09:01:30;143486.59;;;6.72;74.82
14689;BME280;7432;48.728;9.154;2024-02-23T09:03:57;143509.47;;;6.81;74.79
14689;BME280;7432;48.728;9.154;2024-02-23T09:06:23;143508.25;;;6.81;74.95
14689;BME280;7432;48.728;9.154;2024-02-23T09:08:49;143485.38;;;6.71;73.67
14689;BME280;7432;48.728;9.154;2024-02-23T09:11:16;143493.81;;;6.75;73.99
14689;BME280;7432;48.728;9.154;2024-02-23T09:13:42;143492.59;;;6.74;74.51
14689;BME280;7432;48.728;9.154;2024-02-23T09:16:09;143538.44;;;6.93;73.93
14689;BME280;7432;48.728;9.154;2024-02-23T09:18:36;143579.44;;;7.10;73.13
14689;BME280;7432;48.728;9.154;2024-02-23T09:21:03;143606.00;;;7.22;72.29
14689;BME280;7432;48.728;9.154;2024-02-23T09:23:30;143589.13;;;7.14;72.06
14689;BME280;7432;48.728;9.154;2024-02-23T09:25:56;143616.88;;;7.26;73.06
14689;BME280;7432;48.728;9.154;2024-02-23T09:28:22;143644.59;;;7.38;71.92
14689;BME280;7432;48.728;9.154;2024-02-23T09:30:49;143667.56;;;7.47;71.54
14689;BME280;7432;48.728;9.154;2024-02-23T09:33:15;143671.16;;;7.49;71.09
14689;BME280;7432;48.728;9.154;2024-02-23T09:35:43;143702.59;;;7.62;70.52
14689;BME280;7432;48.728;9.154;2024-02-23T09:38:09;143697.72;;;7.60;69.54
14689;BME280;7432;48.728;9.154;2024-02-23T09:40:36;143718.25;;;7.68;68.59
14689;BME280;7432;48.728;9.154;2024-02-23T09:43:03;143758.09;;;7.85;69.86
14689;BME280;7432;48.728;9.154;2024-02-23T09:45:32;143795.50;;;8.01;68.58
14689;BME280;7432;48.728;9.154;2024-02-23T09:48:00;143756.88;;;7.85;68.02
14689;BME280;7432;48.728;9.154;2024-02-23T09:50:29;143825.72;;;8.13;67.83
14689;BME280;7432;48.728;9.154;2024-02-23T09:52:58;143845.06;;;8.21;67.78
14689;BME280;7432;48.728;9.154;2024-02-23T09:55:24;143872.88;;;8.33;67.65
14689;BME280;7432;48.728;9.154;2024-02-23T09:57:52;143903.06;;;8.46;66.90
14689;BME280;7432;48.728;9.154;2024-02-23T10:00:23;143990.06;;;8.82;66.72
14689;BME280;7432;48.728;9.154;2024-02-23T10:02:50;144028.75;;;8.98;65.51
14689;BME280;7432;48.728;9.154;2024-02-23T10:05:16;144057.72;;;9.10;63.15
14689;BME280;7432;48.728;9.154;2024-02-23T10:07:43;144068.63;;;9.15;64.03
14689;BME280;7432;48.728;9.154;2024-02-23T10:10:12;143988.84;;;8.81;64.14
14689;BME280;7432;48.728;9.154;2024-02-23T10:12:38;143904.28;;;8.46;65.20
14689;BME280;7432;48.728;9.154;2024-02-23T10:15:06;143932.09;;;8.58;63.41
14689;BME280;7432;48.728;9.154;2024-02-23T10:17:32;143958.63;;;8.69;64.73
14689;BME280;7432;48.728;9.154;2024-02-23T10:19:59;143948.97;;;8.65;65.64
14689;BME280;7432;48.728;9.154;2024-02-23T10:22:30;143894.59;;;8.42;65.60
14689;BME280;7432;48.728;9.154;2024-02-23T10:24:56;143909.09;;;8.48;65.25
14689;BME280;7432;48.728;9.154;2024-02-23T10:27:24;143915.16;;;8.51;63.28
14689;BME280;7432;48.728;9.154;2024-02-23T10:29:51;143948.97;;;8.65;63.45
14689;BME280;7432;48.728;9.154;2024-02-23T10:32:19;143973.13;;;8.75;63.70
14689;BME280;7432;48.728;9.154;2024-02-23T10:34:47;143991.28;;;8.82;63.30
14689;BME280;7432;48.728;9.154;2024-02-23T10:37:14;143939.28;;;8.61;62.18
14689;BME280;7432;48.728;9.154;2024-02-23T10:39:42;143952.59;;;8.66;63.36
14689;BME280;7432;48.728;9.154;2024-02-23T10:42:09;143968.31;;;8.73;63.27
14689;BME280;7432;48.728;9.154;2024-02-23T10:44:37;143880.09;;;8.36;63.59
14689;BME280;7432;48.728;9.154;2024-02-23T10:47:06;143968.31;;;8.73;63.18
14689;BME280;7432;48.728;9.154;2024-02-23T10:49:33;144006.97;;;8.89;62.43
14689;BME280;7432;48.728;9.154;2024-02-23T10:52:01;144021.47;;;8.95;62.29
14689;BME280;7432;48.728;9.154;2024-02-23T10:54:29;144051.69;;;9.08;62.55
14689;BME280;7432;48.728;9.154;2024-02-23T10:56:57;144057.72;;;9.10;60.83
14689;BME280;7432;48.728;9.154;2024-02-23T10:59:23;144058.94;;;9.11;62.05
14689;BME280;7432;48.728;9.154;2024-02-23T11:01:53;144019.06;;;8.94;61.32
14689;BME280;7432;48.728;9.154;2024-02-23T11:04:23;144036.00;;;9.01;61.63
14689;BME280;7432;48.728;9.154;2024-02-23T11:06:51;144077.06;;;9.18;61.83
14689;BME280;7432;48.728;9.154;2024-02-23T11:09:21;144112.13;;;9.33;62.29
14689;BME280;7432;48.728;9.154;2024-02-23T11:11:52;144062.59;;;9.12;61.50
14689;BME280;7432;48.728;9.154;2024-02-23T11:14:29;144058.94;;;9.11;61.40
14689;BME280;7432;48.728;9.154;2024-02-23T11:16:57;144043.25;;;9.04;61.54
14689;BME280;7432;48.728;9.154;2024-02-23T11:19:32;144008.19;;;8.89;60.86
14689;BME280;7432;48.728;9.154;2024-02-23T11:21:59;143973.13;;;8.75;60.53
14689;BME280;7432;48.728;9.154;2024-02-23T11:24:25;143968.31;;;8.73;61.12
14689;BME280;7432;48.728;9.154;2024-02-23T11:26:56;144011.78;;;8.91;60.83
14689;BME280;7432;48.728;9.154;2024-02-23T11:29:25;143984.03;;;8.79;61.21
14689;BME280;7432;48.728;9.154;2024-02-23T11:31:52;143953.81;;;8.67;61.30
14689;BME280;7432;48.728;9.154;2024-02-23T11:34:23;144013.00;;;8.91;61.27
14689;BME280;7432;48.728;9.154;2024-02-23T11:36:50;144054.13;;;9.09;61.00
14689;BME280;7432;48.728;9.154;2024-02-23T11:39:19;143997.34;;;8.85;61.71
14689;BME280;7432;48.728;9.154;2024-02-23T11:41:48;144017.84;;;8.93;61.48
14689;BME280;7432;48.728;9.154;2024-02-23T11:44:14;144036.00;;;9.01;61.51
14689;BME280;7432;48.728;9.154;2024-02-23T11:46:42;144069.84;;;9.15;60.25
14689;BME280;7432;48.728;9.154;2024-02-23T11:49:10;144077.06;;;9.18;59.76
14689;BME280;7432;48.728;9.154;2024-02-23T11:51:37;144085.53;;;9.22;59.33
14689;BME280;7432;48.728;9.154;2024-02-23T11:54:04;144110.91;;;9.32;60.45
14689;BME280;7432;48.728;9.154;2024-02-23T11:56:30;144068.63;;;9.15;59.61
14689;BME280;7432;48.728;9.154;2024-02-23T11:58:57;144072.22;;;9.16;60.21
14689;BME280;7432;48.728;9.154;2024-02-23T12:01:23;144046.84;;;9.06;59.52
14689;BME280;7432;48.728;9.154;2024-02-23T12:03:50;144016.66;;;8.93;59.01
14689;BME280;7432;48.728;9.154;2024-02-23T12:06:16;144023.91;;;8.96;59.63
14689;BME280;7432;48.728;9.154;2024-02-23T12:08:44;144063.75;;;9.13;61.48
14689;BME280;7432;48.728;9.154;2024-02-23T12:11:12;144124.22;;;9.38;61.55
14689;BME280;7432;48.728;9.154;2024-02-23T12:13:39;144148.41;;;9.48;58.22
14689;BME280;7432;48.728;9.154;2024-02-23T12:16:07;144133.91;;;9.42;58.42
14689;BME280;7432;48.728;9.154;2024-02-23T12:18:34;144098.84;;;9.27;59.52
14689;BME280;7432;48.728;9.154;2024-02-23T12:21:00;144149.59;;;9.48;59.33
14689;BME280;7432;48.728;9.154;2024-02-23T12:23:27;144143.56;;;9.46;59.72
14689;BME280;7432;48.728;9.154;2024-02-23T12:26:04;144127.88;;;9.39;59.45
14689;BME280;7432;48.728;9.154;2024-02-23T12:28:31;144146.00;;;9.47;60.09
14689;BME280;7432;48.728;9.154;2024-02-23T12:30:59;144132.69;;;9.41;59.30
14689;BME280;7432;48.728;9.154;2024-02-23T12:33:27;144104.88;;;9.30;59.93
14689;BME280;7432;48.728;9.154;2024-02-23T12:35:53;144126.66;;;9.39;59.01
14689;BME280;7432;48.728;9.154;2024-02-23T12:38:20;144095.22;;;9.26;57.83
14689;BME280;7432;48.728;9.154;2024-02-23T12:40:46;144055.34;;;9.09;60.76
14689;BME280;7432;48.728;9.154;2024-02-23T12:43:14;144058.94;;;9.11;59.93
14689;BME280;7432;48.728;9.154;2024-02-23T12:45:41;144039.59;;;9.03;59.39
14689;BME280;7432;48.728;9.154;2024-02-23T12:48:09;144000.94;;;8.86;59.49
14689;BME280;7432;48.728;9.154;2024-02-23T12:50:35;143975.56;;;8.76;61.36
14689;BME280;7432;48.728;9.154;2024-02-23T12:53:02;143975.56;;;8.76;60.64
14689;BME280;7432;48.728;9.154;2024-02-23T12:55:28;144008.19;;;8.89;60.70
14689;BME280;7432;48.728;9.154;2024-02-23T12:57:55;144025.09;;;8.97;62.67
14689;BME280;7432;48.728;9.154;2024-02-23T13:00:22;144036.00;;;9.01;62.16
14689;BME280;7432;48.728;9.154;2024-02-23T13:02:49;144032.34;;;9.00;62.47
14689;BME280;7432;48.728;9.154;2024-02-23T13:05:15;144052.91;;;9.08;63.10
14689;BME280;7432;48.728;9.154;2024-02-23T13:07:42;144055.34;;;9.09;61.76